Silk Purse — WDH8874 — position and weather

sailwx.info

Track history (hours):
 
Tides and Currents Weather Stations Pressure Air Temp Water Temp Dewpoint Dewpoint Depression Visibility Wind Speed Wind Dir Waves Ship Positions

Silk Purse

Owner: Holsberger, James T, Mission, KS. More information available from US FCC via Universal Licensing System and Coast Guard Vessel Documentation Center.

Last reported at 2017-Oct-15 12:35 UTC. Time now 2017-Oct-19 16:52 UTC.
Position N 33°37' W 117°55'.

Length 10 m.

Type: Sailing vessel. MMSI: 367662380.

Date/timePositionNaut miles runAvg speedWind from/ knotsBaromVisibWave heightAir tempDewpointWater temp
2017-Oct-15 12:35N 33°37' W 117°55'0 0.0
2017-Oct-15 12:29N 33°37' W 117°55'0 0.0
2017-Oct-15 11:59N 33°37' W 117°55'0 0.0
2017-Oct-15 11:23N 33°37' W 117°55'0 0.0
2017-Oct-15 10:47N 33°37' W 117°55'0 0.0
2017-Oct-15 10:29N 33°37' W 117°55'0 0.0
2017-Oct-15 00:39N 33°37' W 117°55'1 4.2
2017-Oct-15 00:30N 33°37' W 117°55'2 3.8
2017-Oct-14 23:59N 33°36' W 117°53'2 4.2
2017-Oct-14 23:30N 33°36' W 117°55'14 4.8
2017-Oct-14 20:34N 33°42' W 118°11'1 5.2
2017-Oct-14 20:26N 33°42' W 118°12'2 4.7
2017-Oct-14 19:59N 33°42' W 118°14'  
Track history (hours):
 
Tides and Currents Weather Stations Pressure Air Temp Water Temp Dewpoint Dewpoint Depression Visibility Wind Speed Wind Dir Waves Ship Positions

Silk Purse

Owner: Holsberger, James T, Mission, KS. More information available from US FCC via Universal Licensing System and Coast Guard Vessel Documentation Center.

Last reported at 2017-Oct-15 12:35 UTC. Time now 2017-Oct-19 16:52 UTC.
Position N 33°37' W 117°55'.

Length 10 m.

Type: Sailing vessel. MMSI: 367662380.

Date/timePositionNaut miles runAvg speedWind from/ knotsBaromVisibWave heightAir tempDewpointWater temp
2017-Oct-15 12:35N 33°37' W 117°55'0 0.0
2017-Oct-15 12:29N 33°37' W 117°55'0 0.0
2017-Oct-15 11:59N 33°37' W 117°55'0 0.0
2017-Oct-15 11:23N 33°37' W 117°55'0 0.0
2017-Oct-15 10:47N 33°37' W 117°55'0 0.0
2017-Oct-15 10:29N 33°37' W 117°55'0 0.0
2017-Oct-15 00:39N 33°37' W 117°55'1 4.2
2017-Oct-15 00:30N 33°37' W 117°55'2 3.8
2017-Oct-14 23:59N 33°36' W 117°53'2 4.2
2017-Oct-14 23:30N 33°36' W 117°55'14 4.8
2017-Oct-14 20:34N 33°42' W 118°11'1 5.2
2017-Oct-14 20:26N 33°42' W 118°12'2 4.7
2017-Oct-14 19:59N 33°42' W 118°14'  

Dump ship's entire track history